MMSD/SJD METAR and TAF weather

Enter ICAO airport designator
Station Type Date Time Source
MMSD METAR 2021/02/25 16:41 UTC NOAA

MMSD 251641Z 00000KT 10SM FEW250 26/M02 A3001 RMK 8/008 AC


Station Type Date Time Source
MMSD Decoded METAR 2021/02/25 16:41 UTC NOAA

San Jose Del Cabo , Mexico (MMSD) 23-09N 109-42W
Feb 25, 2021 - 11:41 AM EST / 2021.02.25 1641 UTC
Wind: Calm:0
Visibility: 10 mile(s):0
Sky conditions: mostly clear
Temperature: 78 F (26 C)
Dew Point: 28 F (-2 C)
Relative Humidity: 15%
Pressure (altimeter): 30.01 in. Hg (1016 hPa)
ob: MMSD 251641Z 00000KT 10SM FEW250 26/M02 A3001 RMK 8/008 AC
cycle: 16

Station Type Date Time Source
MMSD TAF 2021/02/25 18:59 UTC NOAA

TAF MMSD 251657Z 2518/2618 14012KT P6SM SCT250
FM260300 34010KT P6SM BKN250

Example: see airport list